Nearby METAR Reports

 

EGGP - Liverpool Airpor, United Kingdom
Distance from station: ESE 7mi, 11km
Updated: 27/06/2022 12:20
Partly cloudy
Partly cloudy
 Wind from WNW
Wind: WNW 14 mph , 22 km/h
Temperature: 16°C
Dew Point: 8°C
Humidity: 59%
Barometer: 1013 hPa
Clouds: Partly cloudy
Visibility: 6 miles , 10 km
Cloud details: Few Clouds 1006 m
Partly cloudy 1250 m
2022/06/27 11:20 EGGP 271120Z 29012KT 9999 FEW033 SCT041 16/08 Q1013
EGNR - Hawarden (aut), United Kingdom
Distance from station: S 13mi, 20km
Updated: 27/06/2022 12:20
Partly cloudy
Partly cloudy
 Wind from W
Wind: W 8 mph , 13 km/h
Temperature: 16°C
Dew Point: 7°C
Humidity: 55%
Barometer: 1014 hPa
Clouds: Partly cloudy
Visibility: 6 miles , 10 km
Cloud details: Few Clouds 488 m
Partly cloudy 1067 m
2022/06/27 11:20 EGNR 271120Z 28007KT 250V320 9999 FEW016 SCT035 16/07 Q1014
EGOW - Woodvale Raf, United Kingdom
Distance from station: N 16mi, 26km
Updated: 27/06/2022 12:20
Few Clouds
Few Clouds
 Wind from W
Wind: W 12 mph , 19 km/h
Temperature: 15°C
Dew Point: 10°C
Humidity: 72%
Barometer: 1013 hPa
Clouds: Few Clouds
Visibility: 6 miles , 10 km
Cloud details: Few Clouds 762 m
2022/06/27 11:20 EGOW 271120Z 28010KT 9999 FEW025 15/10 Q1013 RMK BLU
 
EGNO - Wharton, United Kingdom
Distance from station: N 28mi, 45km
Updated: 27/06/2022 12:20
Partly cloudy
Partly cloudy
 Wind from W
Wind: W 17 mph , 28 km/h
Temperature: 15°C
Dew Point: 9°C
Humidity: 68%
Barometer: 1013 hPa
Clouds: Partly cloudy
Visibility: 6 miles , 10 km
Cloud details: Few Clouds 610 m
Partly cloudy 701 m
2022/06/27 11:20 EGNO 271120Z 27015KT 230V300 9999 FEW020 SCT023 15/09 Q1013
EGNH - Blackpool Airpor, United Kingdom
Distance from station: N 29mi, 47km
Updated: 27/06/2022 12:20
Few Clouds
Few Clouds
 Wind from W
Wind: W 17 mph , 28 km/h
Temperature: 15°C
Dew Point: 10°C
Humidity: 72%
Barometer: 1013 hPa
Clouds: Few Clouds
Visibility: 6 miles , 10 km
Cloud details: Few Clouds 549 m
2022/06/27 11:20 EGNH 271120Z 28015KT 9999 FEW018 15/10 Q1013
EGCC - Manchester Intl, United Kingdom
Distance from station: E 31mi, 49km
Updated: 27/06/2022 12:20
Light rain, Showers, Partly cloudy
Light rain, Showers, Partly cloudy
 Wind from WNW
Wind: WNW 9 mph , 15 km/h
Temperature: 13°C
Dew Point: 9°C
Humidity: 77%
Barometer: 1013 hPa
Summary: Light rain, Showers
Clouds: Partly cloudy
Visibility: 6 miles , 10 km
Cloud details: Few Clouds 549 m
Partly cloudy 975 m
2022/06/27 11:20 EGCC 271120Z 30008KT 9999 -SHRA FEW018 SCT032 13/09 Q1013 NOSIG
 
EGOS - Shawbury Raf, United Kingdom
Distance from station: SSE 40mi, 65km
Updated: 27/06/2022 12:20
Mostly cloudy
Mostly cloudy
 Wind from WSW
Wind: WSW 16 mph , 26 km/h
Temperature: 15°C
Dew Point: 5°C
Humidity: 51%
Barometer: 1014 hPa
Clouds: Mostly cloudy
Visibility: 6 miles , 10 km
Cloud details: Few Clouds 1280 m
Mostly cloudy 1768 m
2022/06/27 11:20 EGOS 271120Z AUTO 25014KT 9999 FEW042/// BKN058/// 15/05 Q1014